createdAt,value
2019-01-14T00:02:29.346Z,90.80
2019-01-14T00:05:00.175Z,90.90
2019-01-14T00:07:31.020Z,91.10
2019-01-14T00:10:01.813Z,91.00
2019-01-14T00:12:32.637Z,91.20
2019-01-14T00:15:03.604Z,91.40
2019-01-14T00:17:34.502Z,91.10
2019-01-14T00:20:06.275Z,91.20
2019-01-14T00:22:37.000Z,91.10
2019-01-14T00:25:08.711Z,91.30
2019-01-14T00:27:39.375Z,91.20
2019-01-14T00:30:13.098Z,91.40
2019-01-14T00:32:43.910Z,91.60
2019-01-14T00:35:14.719Z,91.30
2019-01-14T00:37:46.553Z,91.40
2019-01-14T00:40:17.709Z,91.40
2019-01-14T00:42:48.555Z,91.10
2019-01-14T00:45:19.381Z,90.90
2019-01-14T00:47:50.245Z,91.00
2019-01-14T00:50:20.936Z,91.00
2019-01-14T00:52:51.655Z,91.20
2019-01-14T00:55:22.440Z,91.60
2019-01-14T00:57:53.194Z,92.50
2019-01-14T01:00:25.290Z,92.90
2019-01-14T01:02:56.065Z,92.90
2019-01-14T01:05:26.845Z,92.80
2019-01-14T01:07:57.708Z,93.00
2019-01-14T01:10:28.391Z,93.00
2019-01-14T01:13:00.167Z,93.30
2019-01-14T01:15:30.886Z,93.30
2019-01-14T01:18:01.720Z,93.50
2019-01-14T01:20:32.514Z,93.60
2019-01-14T01:23:03.177Z,93.70
2019-01-14T01:25:33.975Z,93.60
2019-01-14T01:28:05.782Z,93.70
2019-01-14T01:30:36.506Z,93.90
2019-01-14T01:33:07.258Z,94.00
2019-01-14T01:35:37.925Z,93.90
2019-01-14T01:38:08.701Z,94.10
2019-01-14T01:40:39.359Z,94.40
2019-01-14T01:43:10.091Z,94.60
2019-01-14T01:45:40.750Z,94.60
2019-01-14T01:48:11.530Z,94.80
2019-01-14T01:50:42.296Z,94.90
2019-01-14T02:09:00.226Z,95.60
2019-01-14T02:11:31.057Z,95.70
2019-01-14T02:14:01.885Z,95.70
2019-01-14T02:16:33.025Z,95.70
2019-01-14T02:19:03.826Z,95.70
2019-01-14T02:21:34.633Z,95.70
2019-01-14T02:24:05.469Z,95.70
2019-01-14T02:26:36.790Z,95.70
2019-01-14T02:29:07.914Z,95.80
2019-01-14T02:31:38.763Z,95.80
2019-01-14T02:34:09.570Z,95.80
2019-01-14T02:36:48.370Z,95.90
2019-01-14T02:39:14.337Z,95.80
2019-01-14T02:41:45.241Z,95.70
2019-01-14T02:44:16.021Z,95.70
2019-01-14T02:46:46.997Z,95.70
2019-01-14T02:49:17.889Z,95.80
2019-01-14T02:51:48.976Z,95.80
2019-01-14T02:54:29.042Z,95.80
2019-01-14T02:58:05.166Z,95.80
2019-01-14T03:01:00.602Z,95.80
2019-01-14T03:03:23.610Z,95.90
2019-01-14T03:06:02.965Z,95.80
2019-01-14T03:08:34.273Z,95.90
2019-01-14T03:11:08.453Z,95.90
2019-01-14T03:13:39.678Z,95.80
2019-01-14T03:16:11.094Z,95.80
2019-01-14T03:18:42.295Z,95.80
2019-01-14T03:21:13.485Z,95.70
2019-01-14T03:23:44.521Z,95.80
2019-01-14T03:26:15.538Z,95.80
2019-01-14T03:28:46.750Z,95.80
2019-01-14T03:31:18.558Z,95.90
2019-01-14T03:33:49.820Z,95.90
2019-01-14T03:36:20.636Z,95.80
2019-01-14T03:38:51.413Z,95.90
2019-01-14T03:41:22.349Z,96.00
2019-01-14T03:43:53.243Z,96.00
2019-01-14T03:46:26.304Z,95.90
2019-01-14T03:48:57.722Z,96.00
2019-01-14T03:51:29.030Z,96.00
2019-01-14T03:54:03.388Z,96.00
2019-01-14T03:56:34.520Z,95.90
2019-01-14T03:59:05.631Z,96.00
2019-01-14T04:01:36.382Z,96.00
2019-01-14T04:04:07.086Z,96.10
2019-01-14T04:06:37.791Z,96.10
2019-01-14T04:09:08.835Z,96.20
2019-01-14T04:11:40.483Z,96.20
2019-01-14T04:14:12.914Z,96.30
2019-01-14T04:16:43.746Z,96.30
2019-01-14T04:19:16.155Z,96.00
2019-01-14T04:25:10.398Z,96.10
2019-01-14T04:27:41.600Z,96.10
2019-01-14T04:30:18.063Z,96.20
2019-01-14T04:32:49.176Z,96.00
2019-01-14T04:35:21.390Z,95.80
2019-01-14T04:37:53.549Z,95.80
2019-01-14T04:40:24.621Z,95.80
2019-01-14T04:42:55.892Z,95.80
2019-01-14T04:45:42.548Z,95.70
2019-01-14T04:48:13.509Z,95.70
2019-01-14T04:50:51.431Z,95.80
2019-01-14T04:53:22.658Z,95.90
2019-01-14T04:55:54.112Z,96.00
2019-01-14T04:58:25.132Z,96.00
2019-01-14T05:00:56.249Z,96.00
2019-01-14T05:03:27.279Z,96.00
2019-01-14T05:05:58.252Z,96.00
2019-01-14T05:08:29.263Z,96.20
2019-01-14T05:11:00.341Z,96.20
2019-01-14T05:13:31.525Z,96.30
2019-01-14T05:16:02.351Z,96.30
2019-01-14T05:18:33.275Z,96.40
2019-01-14T05:21:04.189Z,96.40
2019-01-14T05:23:35.167Z,96.40
2019-01-14T05:26:06.180Z,96.50
2019-01-14T05:28:37.120Z,96.50
2019-01-14T05:40:15.547Z,96.40
2019-01-14T05:42:49.554Z,96.60
2019-01-14T05:45:20.394Z,96.50
2019-01-14T05:47:51.410Z,96.60
2019-01-14T05:50:22.202Z,96.70
2019-01-14T05:52:53.039Z,96.70
2019-01-14T05:55:23.946Z,96.80
2019-01-14T05:57:56.447Z,96.80
2019-01-14T06:00:54.315Z,96.90
2019-01-14T06:03:25.312Z,96.90
2019-01-14T06:06:25.768Z,96.90
2019-01-14T06:08:56.684Z,97.00
2019-01-14T06:11:27.715Z,97.00
2019-01-14T06:13:58.581Z,97.00
2019-01-14T06:16:29.390Z,97.10
2019-01-14T06:19:01.769Z,97.20
2019-01-14T06:21:35.721Z,97.20
2019-01-14T06:24:06.621Z,97.30
2019-01-14T06:26:37.490Z,97.10
2019-01-14T06:29:08.245Z,97.00
2019-01-14T06:31:39.027Z,97.00
2019-01-14T06:34:10.106Z,97.00
2019-01-14T06:36:40.939Z,96.90
2019-01-14T06:39:11.663Z,96.90
2019-01-14T06:41:44.541Z,96.80
2019-01-14T06:44:15.499Z,96.60
2019-01-14T06:46:49.246Z,96.70
2019-01-14T06:49:20.060Z,96.60
2019-01-14T06:51:51.040Z,96.60
2019-01-14T06:54:22.179Z,96.70
2019-01-14T06:56:53.138Z,96.80
2019-01-14T06:59:23.994Z,96.90
2019-01-14T07:01:54.933Z,96.90
2019-01-14T07:04:25.711Z,97.00
2019-01-14T07:06:57.201Z,96.90
2019-01-14T07:09:28.340Z,96.90
2019-01-14T07:11:59.382Z,96.90
2019-01-14T07:14:30.451Z,96.90
2019-01-14T07:17:01.234Z,96.90
2019-01-14T07:19:32.100Z,96.90
2019-01-14T07:22:02.899Z,97.00
2019-01-14T07:24:33.648Z,97.00
2019-01-14T07:27:04.500Z,97.10
2019-01-14T07:29:35.314Z,97.10
2019-01-14T07:32:06.087Z,97.10
2019-01-14T07:34:36.922Z,96.80
2019-01-14T07:37:07.773Z,96.50
2019-01-14T07:39:38.659Z,95.90
2019-01-14T07:42:11.071Z,95.70
2019-01-14T07:44:41.816Z,95.90
2019-01-14T07:47:12.636Z,95.80
2019-01-14T07:49:43.470Z,96.00
2019-01-14T07:52:14.274Z,96.20
2019-01-14T07:54:45.215Z,96.30
2019-01-14T07:57:17.493Z,96.40
2019-01-14T07:59:48.535Z,96.40
2019-01-14T08:02:20.958Z,96.50
2019-01-14T08:04:51.737Z,96.60
2019-01-14T08:07:22.591Z,96.70
2019-01-14T08:09:53.337Z,96.80
2019-01-14T08:12:24.344Z,96.80
2019-01-14T08:14:55.176Z,96.90
2019-01-14T08:17:25.924Z,96.90
2019-01-14T08:19:56.711Z,96.80
2019-01-14T08:22:28.962Z,96.80
2019-01-14T08:24:59.629Z,96.90
2019-01-14T08:27:30.447Z,96.90
2019-01-14T08:30:01.264Z,96.90
2019-01-14T08:32:32.091Z,96.90
2019-01-14T08:35:02.924Z,96.90
2019-01-14T08:37:33.762Z,96.90
2019-01-14T08:42:59.920Z,97.00
2019-01-14T08:45:30.682Z,97.10
2019-01-14T08:48:01.371Z,97.10
2019-01-14T08:50:32.077Z,97.10
2019-01-14T08:53:02.746Z,97.10
2019-01-14T08:55:33.482Z,97.10
2019-01-14T08:58:04.211Z,97.20
2019-01-14T09:00:34.838Z,97.10
2019-01-14T09:03:05.574Z,96.80
2019-01-14T09:05:36.358Z,96.50
2019-01-14T09:08:07.126Z,96.30
2019-01-14T09:10:37.876Z,96.00
2019-01-14T09:13:08.598Z,95.30
2019-01-14T09:15:39.299Z,95.10
2019-01-14T09:18:10.111Z,94.80
2019-01-14T09:20:40.907Z,94.80
2019-01-14T09:23:11.791Z,94.50
2019-01-14T09:25:42.924Z,95.00
2019-01-14T09:28:13.699Z,95.50
2019-01-14T09:30:44.610Z,95.70
2019-01-14T09:33:15.410Z,95.90
2019-01-14T09:35:46.339Z,96.00
2019-01-14T09:38:17.110Z,96.10
2019-01-14T09:40:48.089Z,96.20
2019-01-14T09:43:22.013Z,96.30
2019-01-14T09:45:53.021Z,96.30
2019-01-14T09:48:23.777Z,96.40
2019-01-14T09:50:54.587Z,96.40
2019-01-14T09:53:25.442Z,96.40
2019-01-14T09:55:56.148Z,96.40
2019-01-14T09:58:26.899Z,96.40
2019-01-14T10:00:57.667Z,96.50
2019-01-14T10:03:28.483Z,96.60
2019-01-14T10:05:59.329Z,96.50
2019-01-14T10:08:30.055Z,96.50
2019-01-14T10:11:01.869Z,96.50
2019-01-14T10:13:32.608Z,96.50
2019-01-14T10:16:03.350Z,96.40
2019-01-14T10:18:34.096Z,96.10
2019-01-14T10:21:04.794Z,95.80
2019-01-14T10:23:36.606Z,96.00
2019-01-14T10:26:08.263Z,95.60
2019-01-14T10:28:40.567Z,95.50
2019-01-14T10:31:11.355Z,95.40
2019-01-14T10:33:42.170Z,94.80
2019-01-14T10:36:12.915Z,95.00
2019-01-14T10:38:50.171Z,95.10
2019-01-14T10:41:16.284Z,95.00
2019-01-14T10:43:46.969Z,94.10
2019-01-14T10:46:17.720Z,94.20
2019-01-14T10:48:48.477Z,94.40
2019-01-14T10:51:19.307Z,92.80
2019-01-14T10:53:50.213Z,93.20
2019-01-14T10:56:22.503Z,93.30
2019-01-14T10:58:53.289Z,93.10
2019-01-14T11:01:24.353Z,93.20
2019-01-14T11:03:55.401Z,93.00
2019-01-14T11:06:26.147Z,92.40
2019-01-14T11:08:57.749Z,91.40
2019-01-14T11:11:29.422Z,89.20
2019-01-14T11:14:00.296Z,89.80
2019-01-14T11:16:31.138Z,89.90
2019-01-14T11:19:01.906Z,90.50
2019-01-14T11:21:32.662Z,87.80
2019-01-14T11:24:03.550Z,88.60
2019-01-14T11:26:34.241Z,87.40
2019-01-14T11:29:05.043Z,84.90
2019-01-14T11:31:35.802Z,86.00
2019-01-14T11:34:06.538Z,86.00
2019-01-14T11:36:37.347Z,88.30
2019-01-14T11:39:33.072Z,89.20
2019-01-14T11:42:03.887Z,84.50
2019-01-14T11:44:34.700Z,81.70
2019-01-14T11:47:05.727Z,79.40
2019-01-14T11:49:36.475Z,80.50
2019-01-14T11:52:07.612Z,80.30
2019-01-14T11:54:38.510Z,79.90
2019-01-14T11:57:09.346Z,81.50
2019-01-14T11:59:40.159Z,79.90
2019-01-14T12:02:11.088Z,78.60
2019-01-14T12:04:44.406Z,78.20
2019-01-14T12:07:15.243Z,71.60
2019-01-14T12:09:46.026Z,65.20
2019-01-14T12:12:16.815Z,61.90
2019-01-14T12:14:47.515Z,60.30
2019-01-14T12:17:18.415Z,59.00
2019-01-14T12:19:49.231Z,59.10
2019-01-14T12:22:19.908Z,57.10
2019-01-14T12:24:50.620Z,55.40
2019-01-14T12:27:21.287Z,56.40
2019-01-14T12:29:52.024Z,59.80
2019-01-14T12:32:24.309Z,66.10
2019-01-14T12:34:55.116Z,69.20
2019-01-14T12:37:25.846Z,73.30
2019-01-14T12:39:56.620Z,75.10
2019-01-14T12:42:27.350Z,72.70
2019-01-14T12:44:58.170Z,64.00
2019-01-14T12:47:28.962Z,58.90
2019-01-14T12:50:01.225Z,55.00
2019-01-14T12:52:33.129Z,54.10
2019-01-14T12:55:04.089Z,52.00
2019-01-14T12:57:34.847Z,52.60
2019-01-14T13:00:09.074Z,52.60
2019-01-14T13:02:39.874Z,54.80
2019-01-14T13:05:11.192Z,62.30
2019-01-14T13:07:42.249Z,70.70
2019-01-14T13:10:13.752Z,77.40
2019-01-14T13:12:44.735Z,83.00
2019-01-14T13:15:17.740Z,85.80
2019-01-14T13:17:48.888Z,86.90
2019-01-14T13:20:19.959Z,83.50
2019-01-14T13:22:50.729Z,74.40
2019-01-14T13:25:23.402Z,63.00
2019-01-14T13:27:54.226Z,58.30
2019-01-14T13:30:27.231Z,56.30
2019-01-14T13:32:58.438Z,54.30
2019-01-14T13:35:29.233Z,51.80
2019-01-14T13:38:01.103Z,50.80
2019-01-14T13:40:32.031Z,51.50
2019-01-14T13:43:02.756Z,50.00
2019-01-14T13:45:33.561Z,49.20
2019-01-14T13:48:05.143Z,49.90
2019-01-14T13:50:35.977Z,55.60
2019-01-14T13:53:06.883Z,62.10
2019-01-14T13:55:37.851Z,69.10
2019-01-14T13:58:08.835Z,73.40
2019-01-14T14:00:39.906Z,76.10
2019-01-14T14:03:10.812Z,78.10
2019-01-14T14:05:41.624Z,80.90
2019-01-14T14:08:12.483Z,83.80
2019-01-14T14:10:43.265Z,85.70
2019-01-14T14:13:14.249Z,79.60
2019-01-14T14:15:45.666Z,69.70
2019-01-14T14:18:17.559Z,63.10
2019-01-14T14:20:48.609Z,58.30
2019-01-14T14:23:19.537Z,56.60
2019-01-14T14:25:50.424Z,56.00
2019-01-14T14:28:21.310Z,54.20
2019-01-14T14:30:52.211Z,53.70
2019-01-14T14:33:23.019Z,53.20
2019-01-14T14:35:53.803Z,54.30
2019-01-14T14:38:24.645Z,56.30
2019-01-14T14:40:55.365Z,60.20
2019-01-14T14:43:26.049Z,68.40
2019-01-14T14:45:56.730Z,72.80
2019-01-14T14:48:27.577Z,76.60
2019-01-14T14:50:58.355Z,79.00
2019-01-14T14:53:29.245Z,81.40
2019-01-14T14:56:01.819Z,82.40
2019-01-14T14:58:32.672Z,83.10
2019-01-14T15:01:03.438Z,82.70
2019-01-14T15:03:34.199Z,83.40
2019-01-14T15:06:04.998Z,84.30
2019-01-14T15:08:35.960Z,84.10
2019-01-14T15:11:06.778Z,85.00
2019-01-14T15:13:37.692Z,85.40
2019-01-14T15:16:09.019Z,85.30
2019-01-14T15:18:41.319Z,85.80
2019-01-14T15:21:12.132Z,86.70
2019-01-14T15:23:43.163Z,86.90
2019-01-14T15:26:14.008Z,86.70
2019-01-14T15:28:46.312Z,86.50
2019-01-14T15:31:17.354Z,84.90
2019-01-14T15:33:48.328Z,85.70
2019-01-14T15:36:25.060Z,85.60
2019-01-14T15:38:55.863Z,85.40
2019-01-14T15:41:27.011Z,85.50
2019-01-14T15:43:58.426Z,86.30
2019-01-14T15:46:29.106Z,86.20
2019-01-14T15:49:00.032Z,86.90
2019-01-14T15:51:30.950Z,87.30
2019-01-14T15:54:01.803Z,88.20
2019-01-14T15:56:32.757Z,87.60
2019-01-14T15:59:03.561Z,87.80
2019-01-14T16:01:34.800Z,88.80
2019-01-14T16:04:06.638Z,89.30
2019-01-14T16:06:37.426Z,90.40
2019-01-14T16:09:09.150Z,90.50
2019-01-14T16:11:40.203Z,90.50
2019-01-14T16:14:10.983Z,90.50
2019-01-14T16:16:41.916Z,91.00
2019-01-14T16:19:12.730Z,91.40
2019-01-14T16:21:43.798Z,92.10
2019-01-14T16:24:17.781Z,92.10
2019-01-14T16:26:49.943Z,92.10
2019-01-14T16:29:20.930Z,92.50
2019-01-14T16:31:52.016Z,92.60
2019-01-14T16:34:23.326Z,92.60
2019-01-14T16:36:54.746Z,93.00
2019-01-14T16:39:28.153Z,92.90
2019-01-14T16:42:00.072Z,93.00
2019-01-14T16:44:30.995Z,93.10
2019-01-14T16:47:01.771Z,93.30
2019-01-14T16:49:32.590Z,93.40
2019-01-14T16:52:04.838Z,93.50
2019-01-14T16:54:39.057Z,93.60
2019-01-14T16:57:11.652Z,93.20
2019-01-14T16:59:42.533Z,93.30
2019-01-14T17:02:13.466Z,93.30
2019-01-14T17:04:44.861Z,93.30
2019-01-14T17:07:15.930Z,93.30
2019-01-14T17:09:47.576Z,93.20
2019-01-14T17:12:18.653Z,93.30
2019-01-14T17:14:49.482Z,93.60
2019-01-14T17:17:20.331Z,93.70
2019-01-14T17:19:52.633Z,93.70
2019-01-14T17:22:23.451Z,93.80
2019-01-14T17:24:54.354Z,94.10
2019-01-14T17:27:25.067Z,94.20
2019-01-14T17:29:55.889Z,94.00
2019-01-14T17:32:26.643Z,94.00
2019-01-14T17:34:57.494Z,94.00
2019-01-14T17:37:28.755Z,94.00
2019-01-14T17:39:59.577Z,94.10
2019-01-14T17:42:30.383Z,94.20
2019-01-14T17:45:01.385Z,94.30
2019-01-14T17:47:35.402Z,94.30
2019-01-14T17:50:08.783Z,94.40
2019-01-14T17:52:40.747Z,94.40
2019-01-14T17:55:11.874Z,94.50
2019-01-14T17:57:42.851Z,94.50
2019-01-14T18:00:19.840Z,94.40
2019-01-14T18:02:51.010Z,94.40
2019-01-14T18:05:22.180Z,94.50
2019-01-14T18:08:45.192Z,94.60
2019-01-14T18:11:16.804Z,94.60
2019-01-14T18:13:47.874Z,94.60
2019-01-14T18:16:19.974Z,94.70
2019-01-14T18:18:50.913Z,94.80
2019-01-14T18:21:21.668Z,94.80
2019-01-14T18:23:54.089Z,94.80
2019-01-14T18:26:24.928Z,94.50
2019-01-14T18:28:57.648Z,94.30
2019-01-14T18:31:28.503Z,94.40
2019-01-14T18:33:59.366Z,94.40
2019-01-14T18:36:30.134Z,94.50
2019-01-14T18:39:01.156Z,94.60
2019-01-14T18:41:33.743Z,94.70
2019-01-14T18:44:04.678Z,94.80
2019-01-14T18:46:36.530Z,94.80
2019-01-14T18:49:07.606Z,94.90
2019-01-14T18:51:38.434Z,94.90
2019-01-14T18:54:11.152Z,95.00
2019-01-14T18:56:44.204Z,95.20
2019-01-14T18:59:15.055Z,95.20
2019-01-14T19:02:30.346Z,95.30
2019-01-14T19:05:58.521Z,95.20
2019-01-14T19:08:31.652Z,95.30
2019-01-14T19:11:02.623Z,95.30
2019-01-14T19:13:37.949Z,95.30
2019-01-14T19:17:10.549Z,95.40
2019-01-14T19:19:44.170Z,95.40
2019-01-14T19:22:15.085Z,95.50
2019-01-14T19:24:46.948Z,95.50
2019-01-14T19:27:17.866Z,95.60
2019-01-14T19:29:49.266Z,95.60
2019-01-14T19:32:22.865Z,95.70
2019-01-14T19:34:53.835Z,95.70
2019-01-14T19:37:27.352Z,95.90
2019-01-14T19:39:58.997Z,96.00
2019-01-14T19:42:47.507Z,96.10
2019-01-14T19:46:10.390Z,96.30
2019-01-14T19:49:34.317Z,96.20
2019-01-14T19:52:34.038Z,96.20
2019-01-14T19:55:02.123Z,96.10
2019-01-14T19:57:51.986Z,95.80
2019-01-14T20:00:42.371Z,96.00
2019-01-14T20:03:41.744Z,96.00
2019-01-14T20:06:16.372Z,96.00
2019-01-14T20:08:50.302Z,96.00
2019-01-14T20:11:21.252Z,95.80
2019-01-14T20:17:47.798Z,95.70
2019-01-14T20:20:18.647Z,95.60
2019-01-14T20:22:49.576Z,95.60
2019-01-14T20:25:20.445Z,95.70
2019-01-14T20:27:51.265Z,95.70
2019-01-14T20:30:24.430Z,95.60
2019-01-14T20:32:55.229Z,95.60
2019-01-14T20:35:26.186Z,95.60
2019-01-14T20:37:56.894Z,95.60
2019-01-14T20:40:27.646Z,95.50
2019-01-14T20:42:58.398Z,95.40
2019-01-14T20:45:29.174Z,95.40
2019-01-14T20:47:59.892Z,95.40
2019-01-14T20:50:30.635Z,95.40
2019-01-14T20:53:01.411Z,95.40
2019-01-14T20:55:32.175Z,95.40
2019-01-14T20:58:02.902Z,95.40
2019-01-14T21:00:33.706Z,95.40
2019-01-14T21:03:04.477Z,95.50
2019-01-14T21:05:35.300Z,95.60
2019-01-14T21:08:06.127Z,95.60
2019-01-14T21:10:36.929Z,95.90
2019-01-14T21:13:07.627Z,95.70
2019-01-14T21:15:38.525Z,95.80
2019-01-14T21:18:09.239Z,95.90
2019-01-14T21:20:39.961Z,96.00
2019-01-14T21:23:10.669Z,96.10
2019-01-14T21:25:41.408Z,96.20
2019-01-14T21:28:12.175Z,96.30
2019-01-14T21:30:44.288Z,96.40
2019-01-14T21:33:15.152Z,96.40
2019-01-14T21:35:45.973Z,96.60
2019-01-14T21:38:16.666Z,96.60
2019-01-14T21:40:47.441Z,96.60
2019-01-14T21:43:18.155Z,96.70
2019-01-14T21:45:49.100Z,96.70
2019-01-14T21:48:19.848Z,96.80
2019-01-14T21:50:50.662Z,96.90
2019-01-14T21:53:21.418Z,97.00
2019-01-14T21:55:53.153Z,96.90
2019-01-14T21:58:23.886Z,96.70
2019-01-14T22:00:55.711Z,96.50
2019-01-14T22:03:26.500Z,96.40
2019-01-14T22:05:57.337Z,96.20
2019-01-14T22:08:28.174Z,95.90
2019-01-14T22:10:58.920Z,95.70
2019-01-14T22:13:29.667Z,95.70
2019-01-14T22:16:00.409Z,95.80
2019-01-14T22:18:31.145Z,95.80
2019-01-14T22:21:01.961Z,95.70
2019-01-14T22:23:32.682Z,95.50
2019-01-14T22:26:03.438Z,95.70
2019-01-14T22:28:34.245Z,95.70
2019-01-14T22:31:05.098Z,95.50
2019-01-14T22:33:35.989Z,95.60
2019-01-14T22:36:07.137Z,95.60
2019-01-14T22:38:37.934Z,95.50
2019-01-14T22:41:10.214Z,95.50
2019-01-14T22:43:40.941Z,95.50
2019-01-14T22:46:11.677Z,95.40
2019-01-14T22:48:42.446Z,95.30
2019-01-14T22:51:13.158Z,95.50
2019-01-14T22:53:44.039Z,95.60
2019-01-14T22:56:14.811Z,95.70
2019-01-14T22:58:45.600Z,95.70
2019-01-14T23:01:45.291Z,95.80
2019-01-14T23:04:16.447Z,95.80
2019-01-14T23:06:47.270Z,95.70
2019-01-14T23:09:17.986Z,95.70
2019-01-14T23:11:52.993Z,95.80
2019-01-14T23:14:21.394Z,95.80
2019-01-14T23:16:52.101Z,95.90
2019-01-14T23:19:22.928Z,95.90
2019-01-14T23:21:53.743Z,95.90
2019-01-14T23:24:24.486Z,95.80
2019-01-14T23:26:55.381Z,95.80
2019-01-14T23:29:27.194Z,95.80
2019-01-14T23:31:58.074Z,95.80
2019-01-14T23:34:28.943Z,95.70
2019-01-14T23:36:59.718Z,95.60
2019-01-14T23:39:30.519Z,95.60
2019-01-14T23:42:01.226Z,95.50
2019-01-14T23:44:32.091Z,95.40
2019-01-14T23:47:02.874Z,95.30
2019-01-14T23:49:33.606Z,95.20
2019-01-14T23:52:04.355Z,95.10
2019-01-14T23:54:37.114Z,95.00
2019-01-14T23:57:07.829Z,95.10
2019-01-14T23:59:38.582Z,95.10
